sensor_id;sensor_type;location;lat;lon;timestamp;P1;durP1;ratioP1;P2;durP2;ratioP2
53833;SDS011;39735;51.432;5.482;2022-07-09T00:01:17;7.75;;;4.07;;
53833;SDS011;39735;51.432;5.482;2022-07-09T00:03:42;17.73;;;5.57;;
53833;SDS011;39735;51.432;5.482;2022-07-09T00:06:07;9.57;;;5.18;;
53833;SDS011;39735;51.432;5.482;2022-07-09T00:08:33;14.00;;;5.72;;
53833;SDS011;39735;51.432;5.482;2022-07-09T00:10:58;25.58;;;6.35;;
53833;SDS011;39735;51.432;5.482;2022-07-09T00:13:24;12.73;;;5.45;;
53833;SDS011;39735;51.432;5.482;2022-07-09T00:15:49;24.83;;;8.45;;
53833;SDS011;39735;51.432;5.482;2022-07-09T00:18:15;12.07;;;5.47;;
53833;SDS011;39735;51.432;5.482;2022-07-09T00:20:41;22.85;;;6.18;;
53833;SDS011;39735;51.432;5.482;2022-07-09T00:23:07;14.48;;;5.00;;
53833;SDS011;39735;51.432;5.482;2022-07-09T00:25:32;19.55;;;4.60;;
53833;SDS011;39735;51.432;5.482;2022-07-09T00:27:58;12.15;;;5.35;;
53833;SDS011;39735;51.432;5.482;2022-07-09T00:30:23;11.60;;;5.10;;
53833;SDS011;39735;51.432;5.482;2022-07-09T00:32:48;15.75;;;6.10;;
53833;SDS011;39735;51.432;5.482;2022-07-09T00:35:14;13.20;;;5.55;;
53833;SDS011;39735;51.432;5.482;2022-07-09T00:37:39;15.93;;;6.00;;
53833;SDS011;39735;51.432;5.482;2022-07-09T00:40:05;26.83;;;5.82;;
53833;SDS011;39735;51.432;5.482;2022-07-09T00:42:31;17.00;;;6.20;;
53833;SDS011;39735;51.432;5.482;2022-07-09T00:44:56;19.00;;;8.25;;
53833;SDS011;39735;51.432;5.482;2022-07-09T00:47:22;13.10;;;5.20;;
53833;SDS011;39735;51.432;5.482;2022-07-09T00:49:47;19.88;;;6.13;;
53833;SDS011;39735;51.432;5.482;2022-07-09T00:52:13;28.17;;;9.38;;
53833;SDS011;39735;51.432;5.482;2022-07-09T00:54:39;25.67;;;6.47;;
53833;SDS011;39735;51.432;5.482;2022-07-09T00:57:06;31.67;;;6.35;;
53833;SDS011;39735;51.432;5.482;2022-07-09T00:59:34;16.88;;;6.45;;
53833;SDS011;39735;51.432;5.482;2022-07-09T01:02:00;24.35;;;6.55;;
53833;SDS011;39735;51.432;5.482;2022-07-09T01:04:26;26.58;;;6.20;;
53833;SDS011;39735;51.432;5.482;2022-07-09T01:06:51;18.13;;;6.40;;
53833;SDS011;39735;51.432;5.482;2022-07-09T01:09:16;20.60;;;6.90;;
53833;SDS011;39735;51.432;5.482;2022-07-09T01:11:42;17.13;;;8.00;;
53833;SDS011;39735;51.432;5.482;2022-07-09T01:14:07;12.13;;;6.22;;
53833;SDS011;39735;51.432;5.482;2022-07-09T01:16:33;24.45;;;8.32;;
53833;SDS011;39735;51.432;5.482;2022-07-09T01:19:00;12.68;;;6.85;;
53833;SDS011;39735;51.432;5.482;2022-07-09T01:21:25;16.02;;;7.20;;
53833;SDS011;39735;51.432;5.482;2022-07-09T01:23:51;14.10;;;7.70;;
53833;SDS011;39735;51.432;5.482;2022-07-09T01:26:16;21.98;;;8.10;;
53833;SDS011;39735;51.432;5.482;2022-07-09T01:28:44;12.10;;;6.68;;
53833;SDS011;39735;51.432;5.482;2022-07-09T01:31:10;19.23;;;8.57;;
53833;SDS011;39735;51.432;5.482;2022-07-09T01:33:35;15.70;;;9.55;;
53833;SDS011;39735;51.432;5.482;2022-07-09T01:36:01;15.35;;;8.48;;
53833;SDS011;39735;51.432;5.482;2022-07-09T01:38:26;27.48;;;7.93;;
53833;SDS011;39735;51.432;5.482;2022-07-09T01:40:51;8.98;;;7.50;;
53833;SDS011;39735;51.432;5.482;2022-07-09T01:43:17;14.35;;;8.02;;
53833;SDS011;39735;51.432;5.482;2022-07-09T01:45:43;22.05;;;9.93;;
53833;SDS011;39735;51.432;5.482;2022-07-09T01:48:08;20.70;;;10.32;;
53833;SDS011;39735;51.432;5.482;2022-07-09T01:50:34;24.20;;;8.55;;
53833;SDS011;39735;51.432;5.482;2022-07-09T01:52:59;18.55;;;9.85;;
53833;SDS011;39735;51.432;5.482;2022-07-09T01:55:24;16.23;;;9.32;;
53833;SDS011;39735;51.432;5.482;2022-07-09T01:57:50;29.67;;;9.88;;
53833;SDS011;39735;51.432;5.482;2022-07-09T02:00:15;12.60;;;9.95;;
53833;SDS011;39735;51.432;5.482;2022-07-09T02:02:43;14.90;;;8.50;;
53833;SDS011;39735;51.432;5.482;2022-07-09T02:05:08;22.42;;;9.88;;
53833;SDS011;39735;51.432;5.482;2022-07-09T02:07:34;24.17;;;9.50;;
53833;SDS011;39735;51.432;5.482;2022-07-09T02:10:00;21.08;;;9.93;;
53833;SDS011;39735;51.432;5.482;2022-07-09T02:12:25;19.02;;;9.80;;
53833;SDS011;39735;51.432;5.482;2022-07-09T02:14:51;10.77;;;8.02;;
53833;SDS011;39735;51.432;5.482;2022-07-09T02:17:16;27.50;;;9.25;;
53833;SDS011;39735;51.432;5.482;2022-07-09T02:19:42;14.60;;;8.82;;
53833;SDS011;39735;51.432;5.482;2022-07-09T02:22:07;13.23;;;9.95;;
53833;SDS011;39735;51.432;5.482;2022-07-09T02:24:32;17.58;;;8.20;;
53833;SDS011;39735;51.432;5.482;2022-07-09T02:26:58;15.25;;;8.50;;
53833;SDS011;39735;51.432;5.482;2022-07-09T02:29:23;18.45;;;9.60;;
53833;SDS011;39735;51.432;5.482;2022-07-09T02:31:49;14.55;;;8.23;;
53833;SDS011;39735;51.432;5.482;2022-07-09T02:34:14;19.52;;;7.75;;
53833;SDS011;39735;51.432;5.482;2022-07-09T02:36:40;24.23;;;9.73;;
53833;SDS011;39735;51.432;5.482;2022-07-09T02:39:05;18.70;;;9.57;;
53833;SDS011;39735;51.432;5.482;2022-07-09T02:41:30;9.73;;;8.15;;
53833;SDS011;39735;51.432;5.482;2022-07-09T02:43:56;12.50;;;9.27;;
53833;SDS011;39735;51.432;5.482;2022-07-09T02:46:21;15.52;;;10.43;;
53833;SDS011;39735;51.432;5.482;2022-07-09T02:48:46;20.15;;;9.57;;
53833;SDS011;39735;51.432;5.482;2022-07-09T02:51:12;14.10;;;9.27;;
53833;SDS011;39735;51.432;5.482;2022-07-09T02:53:37;13.13;;;9.90;;
53833;SDS011;39735;51.432;5.482;2022-07-09T02:56:03;21.92;;;10.15;;
53833;SDS011;39735;51.432;5.482;2022-07-09T02:58:28;21.73;;;9.85;;
53833;SDS011;39735;51.432;5.482;2022-07-09T03:00:56;20.05;;;9.02;;
53833;SDS011;39735;51.432;5.482;2022-07-09T03:03:21;15.13;;;9.50;;
53833;SDS011;39735;51.432;5.482;2022-07-09T03:05:48;25.70;;;13.57;;
53833;SDS011;39735;51.432;5.482;2022-07-09T03:08:13;20.67;;;10.55;;
53833;SDS011;39735;51.432;5.482;2022-07-09T03:10:39;16.27;;;12.45;;
53833;SDS011;39735;51.432;5.482;2022-07-09T03:13:04;23.27;;;13.60;;
53833;SDS011;39735;51.432;5.482;2022-07-09T03:15:29;19.33;;;12.13;;
53833;SDS011;39735;51.432;5.482;2022-07-09T03:17:55;19.33;;;10.10;;
53833;SDS011;39735;51.432;5.482;2022-07-09T03:20:20;24.42;;;11.82;;
53833;SDS011;39735;51.432;5.482;2022-07-09T03:22:46;25.63;;;11.27;;
53833;SDS011;39735;51.432;5.482;2022-07-09T03:25:11;17.40;;;9.45;;
53833;SDS011;39735;51.432;5.482;2022-07-09T03:27:36;14.85;;;9.88;;
53833;SDS011;39735;51.432;5.482;2022-07-09T03:30:02;16.42;;;9.77;;
53833;SDS011;39735;51.432;5.482;2022-07-09T03:32:29;21.85;;;13.10;;
53833;SDS011;39735;51.432;5.482;2022-07-09T03:34:54;24.30;;;10.82;;
53833;SDS011;39735;51.432;5.482;2022-07-09T03:37:20;20.08;;;10.93;;
53833;SDS011;39735;51.432;5.482;2022-07-09T03:39:46;20.00;;;11.85;;
53833;SDS011;39735;51.432;5.482;2022-07-09T03:42:12;27.33;;;14.18;;
53833;SDS011;39735;51.432;5.482;2022-07-09T03:44:38;18.50;;;13.63;;
53833;SDS011;39735;51.432;5.482;2022-07-09T03:47:03;30.48;;;13.88;;
53833;SDS011;39735;51.432;5.482;2022-07-09T03:49:29;28.67;;;15.07;;
53833;SDS011;39735;51.432;5.482;2022-07-09T03:51:55;37.00;;;14.30;;
53833;SDS011;39735;51.432;5.482;2022-07-09T03:54:21;31.98;;;15.52;;
53833;SDS011;39735;51.432;5.482;2022-07-09T03:56:46;24.00;;;15.48;;
53833;SDS011;39735;51.432;5.482;2022-07-09T03:59:12;24.70;;;15.80;;
53833;SDS011;39735;51.432;5.482;2022-07-09T04:01:37;36.55;;;19.60;;
53833;SDS011;39735;51.432;5.482;2022-07-09T04:04:03;31.52;;;19.15;;
53833;SDS011;39735;51.432;5.482;2022-07-09T04:06:29;45.58;;;20.48;;
53833;SDS011;39735;51.432;5.482;2022-07-09T04:08:54;41.28;;;21.17;;
53833;SDS011;39735;51.432;5.482;2022-07-09T04:11:20;41.95;;;22.17;;
53833;SDS011;39735;51.432;5.482;2022-07-09T04:13:45;36.58;;;23.27;;
53833;SDS011;39735;51.432;5.482;2022-07-09T04:16:11;38.22;;;23.33;;
53833;SDS011;39735;51.432;5.482;2022-07-09T04:18:36;56.63;;;27.25;;
53833;SDS011;39735;51.432;5.482;2022-07-09T04:21:02;42.70;;;26.70;;
53833;SDS011;39735;51.432;5.482;2022-07-09T04:23:27;41.95;;;25.65;;
53833;SDS011;39735;51.432;5.482;2022-07-09T04:25:53;34.65;;;25.67;;
53833;SDS011;39735;51.432;5.482;2022-07-09T04:28:18;54.70;;;29.63;;
53833;SDS011;39735;51.432;5.482;2022-07-09T04:30:44;43.63;;;24.58;;
53833;SDS011;39735;51.432;5.482;2022-07-09T04:33:11;49.47;;;26.05;;
53833;SDS011;39735;51.432;5.482;2022-07-09T04:35:36;35.88;;;25.15;;
53833;SDS011;39735;51.432;5.482;2022-07-09T04:38:03;43.03;;;28.17;;
53833;SDS011;39735;51.432;5.482;2022-07-09T04:40:28;58.08;;;28.52;;
53833;SDS011;39735;51.432;5.482;2022-07-09T04:42:54;48.30;;;31.85;;
53833;SDS011;39735;51.432;5.482;2022-07-09T04:45:19;47.80;;;27.70;;
53833;SDS011;39735;51.432;5.482;2022-07-09T04:47:45;47.28;;;29.08;;
53833;SDS011;39735;51.432;5.482;2022-07-09T04:50:10;44.20;;;25.50;;
53833;SDS011;39735;51.432;5.482;2022-07-09T04:52:36;36.53;;;24.55;;
53833;SDS011;39735;51.432;5.482;2022-07-09T04:55:02;40.80;;;23.35;;
53833;SDS011;39735;51.432;5.482;2022-07-09T04:57:28;42.97;;;24.98;;
53833;SDS011;39735;51.432;5.482;2022-07-09T04:59:58;35.47;;;25.23;;
53833;SDS011;39735;51.432;5.482;2022-07-09T05:02:23;33.72;;;23.20;;
53833;SDS011;39735;51.432;5.482;2022-07-09T05:04:49;32.80;;;23.77;;
53833;SDS011;39735;51.432;5.482;2022-07-09T05:07:14;31.95;;;23.90;;
53833;SDS011;39735;51.432;5.482;2022-07-09T05:09:39;31.77;;;24.38;;
53833;SDS011;39735;51.432;5.482;2022-07-09T05:12:05;42.03;;;26.75;;
53833;SDS011;39735;51.432;5.482;2022-07-09T05:14:31;48.78;;;27.75;;
53833;SDS011;39735;51.432;5.482;2022-07-09T05:16:56;46.33;;;26.73;;
53833;SDS011;39735;51.432;5.482;2022-07-09T05:19:21;48.65;;;29.90;;
53833;SDS011;39735;51.432;5.482;2022-07-09T05:21:47;48.25;;;28.05;;
53833;SDS011;39735;51.432;5.482;2022-07-09T05:24:12;54.55;;;31.92;;
53833;SDS011;39735;51.432;5.482;2022-07-09T05:26:37;45.55;;;31.83;;
53833;SDS011;39735;51.432;5.482;2022-07-09T05:29:03;58.20;;;31.33;;
53833;SDS011;39735;51.432;5.482;2022-07-09T05:31:28;42.90;;;30.20;;
53833;SDS011;39735;51.432;5.482;2022-07-09T05:33:54;49.65;;;30.15;;
53833;SDS011;39735;51.432;5.482;2022-07-09T05:36:19;54.92;;;31.77;;
53833;SDS011;39735;51.432;5.482;2022-07-09T05:38:45;43.15;;;29.63;;
53833;SDS011;39735;51.432;5.482;2022-07-09T05:41:10;52.80;;;29.92;;
53833;SDS011;39735;51.432;5.482;2022-07-09T05:43:36;47.58;;;28.15;;
53833;SDS011;39735;51.432;5.482;2022-07-09T05:46:02;50.38;;;33.22;;
53833;SDS011;39735;51.432;5.482;2022-07-09T05:48:27;53.75;;;32.20;;
53833;SDS011;39735;51.432;5.482;2022-07-09T05:50:53;58.30;;;31.25;;
53833;SDS011;39735;51.432;5.482;2022-07-09T05:53:19;43.10;;;29.35;;
53833;SDS011;39735;51.432;5.482;2022-07-09T05:55:45;52.90;;;30.52;;
53833;SDS011;39735;51.432;5.482;2022-07-09T05:58:11;51.45;;;29.52;;
53833;SDS011;39735;51.432;5.482;2022-07-09T06:00:37;42.83;;;29.75;;
53833;SDS011;39735;51.432;5.482;2022-07-09T06:03:02;38.35;;;29.48;;
53833;SDS011;39735;51.432;5.482;2022-07-09T06:05:27;51.00;;;30.50;;
53833;SDS011;39735;51.432;5.482;2022-07-09T06:07:53;54.10;;;32.63;;
53833;SDS011;39735;51.432;5.482;2022-07-09T06:10:19;47.65;;;32.00;;
53833;SDS011;39735;51.432;5.482;2022-07-09T06:12:44;47.45;;;32.53;;
53833;SDS011;39735;51.432;5.482;2022-07-09T06:15:10;44.45;;;28.90;;
53833;SDS011;39735;51.432;5.482;2022-07-09T06:17:36;45.22;;;32.30;;
53833;SDS011;39735;51.432;5.482;2022-07-09T06:20:01;44.88;;;32.47;;
53833;SDS011;39735;51.432;5.482;2022-07-09T06:22:27;42.58;;;28.90;;
53833;SDS011;39735;51.432;5.482;2022-07-09T06:24:52;55.00;;;31.63;;
53833;SDS011;39735;51.432;5.482;2022-07-09T06:27:17;57.85;;;31.38;;
53833;SDS011;39735;51.432;5.482;2022-07-09T06:29:43;44.10;;;28.48;;
53833;SDS011;39735;51.432;5.482;2022-07-09T06:32:08;34.55;;;30.15;;
53833;SDS011;39735;51.432;5.482;2022-07-09T06:34:34;57.45;;;30.33;;
53833;SDS011;39735;51.432;5.482;2022-07-09T06:36:59;59.30;;;31.17;;
53833;SDS011;39735;51.432;5.482;2022-07-09T06:39:24;39.50;;;29.30;;
53833;SDS011;39735;51.432;5.482;2022-07-09T06:42:09;34.20;;;25.20;;
53833;SDS011;39735;51.432;5.482;2022-07-09T06:44:34;32.28;;;27.80;;
53833;SDS011;39735;51.432;5.482;2022-07-09T06:47:00;49.28;;;28.10;;
53833;SDS011;39735;51.432;5.482;2022-07-09T06:49:25;33.25;;;27.60;;
53833;SDS011;39735;51.432;5.482;2022-07-09T06:51:51;56.22;;;24.63;;
53833;SDS011;39735;51.432;5.482;2022-07-09T06:54:16;36.95;;;25.23;;
53833;SDS011;39735;51.432;5.482;2022-07-09T06:56:41;32.38;;;23.95;;
53833;SDS011;39735;51.432;5.482;2022-07-09T06:59:07;34.55;;;24.63;;
53833;SDS011;39735;51.432;5.482;2022-07-09T07:01:32;35.03;;;26.08;;
53833;SDS011;39735;51.432;5.482;2022-07-09T07:03:57;35.20;;;23.90;;
53833;SDS011;39735;51.432;5.482;2022-07-09T07:06:23;37.83;;;23.10;;
53833;SDS011;39735;51.432;5.482;2022-07-09T07:08:48;29.75;;;20.85;;
53833;SDS011;39735;51.432;5.482;2022-07-09T07:11:14;41.35;;;22.85;;
53833;SDS011;39735;51.432;5.482;2022-07-09T07:13:39;41.15;;;24.75;;
53833;SDS011;39735;51.432;5.482;2022-07-09T07:16:05;29.60;;;21.73;;
53833;SDS011;39735;51.432;5.482;2022-07-09T07:18:30;37.90;;;18.38;;
53833;SDS011;39735;51.432;5.482;2022-07-09T07:20:56;29.27;;;16.23;;
53833;SDS011;39735;51.432;5.482;2022-07-09T07:23:21;24.48;;;17.27;;
53833;SDS011;39735;51.432;5.482;2022-07-09T07:25:46;24.65;;;16.95;;
53833;SDS011;39735;51.432;5.482;2022-07-09T07:28:12;27.90;;;16.60;;
53833;SDS011;39735;51.432;5.482;2022-07-09T07:30:38;25.63;;;15.20;;
53833;SDS011;39735;51.432;5.482;2022-07-09T07:33:03;20.27;;;13.68;;
53833;SDS011;39735;51.432;5.482;2022-07-09T07:35:29;25.35;;;14.95;;
53833;SDS011;39735;51.432;5.482;2022-07-09T07:37:54;19.90;;;13.75;;
53833;SDS011;39735;51.432;5.482;2022-07-09T07:40:21;26.45;;;14.13;;
53833;SDS011;39735;51.432;5.482;2022-07-09T07:42:46;18.23;;;13.00;;
53833;SDS011;39735;51.432;5.482;2022-07-09T07:45:11;17.27;;;13.55;;
53833;SDS011;39735;51.432;5.482;2022-07-09T07:47:37;30.25;;;14.18;;
53833;SDS011;39735;51.432;5.482;2022-07-09T07:50:03;31.42;;;14.35;;
53833;SDS011;39735;51.432;5.482;2022-07-09T07:52:29;37.78;;;13.93;;
53833;SDS011;39735;51.432;5.482;2022-07-09T07:54:54;24.15;;;10.13;;
53833;SDS011;39735;51.432;5.482;2022-07-09T07:57:21;21.10;;;12.98;;
53833;SDS011;39735;51.432;5.482;2022-07-09T07:59:46;22.80;;;13.23;;
53833;SDS011;39735;51.432;5.482;2022-07-09T08:02:12;20.40;;;13.93;;
53833;SDS011;39735;51.432;5.482;2022-07-09T08:04:37;18.15;;;12.98;;
53833;SDS011;39735;51.432;5.482;2022-07-09T08:07:03;19.38;;;13.73;;
53833;SDS011;39735;51.432;5.482;2022-07-09T08:09:28;16.02;;;12.38;;
53833;SDS011;39735;51.432;5.482;2022-07-09T08:11:54;18.95;;;10.82;;
53833;SDS011;39735;51.432;5.482;2022-07-09T08:14:19;17.70;;;11.13;;
53833;SDS011;39735;51.432;5.482;2022-07-09T08:16:45;25.58;;;12.00;;
53833;SDS011;39735;51.432;5.482;2022-07-09T08:19:10;31.95;;;12.68;;
53833;SDS011;39735;51.432;5.482;2022-07-09T08:21:36;35.63;;;12.23;;
53833;SDS011;39735;51.432;5.482;2022-07-09T08:24:01;23.85;;;12.38;;
53833;SDS011;39735;51.432;5.482;2022-07-09T08:26:29;23.08;;;12.90;;
53833;SDS011;39735;51.432;5.482;2022-07-09T08:28:55;18.50;;;11.30;;
53833;SDS011;39735;51.432;5.482;2022-07-09T08:31:21;25.95;;;13.02;;
53833;SDS011;39735;51.432;5.482;2022-07-09T08:33:47;18.73;;;12.20;;
53833;SDS011;39735;51.432;5.482;2022-07-09T08:36:13;26.92;;;14.98;;
53833;SDS011;39735;51.432;5.482;2022-07-09T08:38:39;22.95;;;11.98;;
53833;SDS011;39735;51.432;5.482;2022-07-09T08:41:04;22.08;;;10.07;;
53833;SDS011;39735;51.432;5.482;2022-07-09T08:43:34;13.55;;;9.73;;
53833;SDS011;39735;51.432;5.482;2022-07-09T08:46:00;19.05;;;8.93;;
53833;SDS011;39735;51.432;5.482;2022-07-09T08:48:26;31.27;;;9.25;;
53833;SDS011;39735;51.432;5.482;2022-07-09T08:50:52;21.30;;;11.15;;
53833;SDS011;39735;51.432;5.482;2022-07-09T08:53:18;15.68;;;9.30;;
53833;SDS011;39735;51.432;5.482;2022-07-09T08:55:44;15.50;;;10.90;;
53833;SDS011;39735;51.432;5.482;2022-07-09T08:58:11;19.65;;;10.63;;
53833;SDS011;39735;51.432;5.482;2022-07-09T09:00:38;13.50;;;10.05;;
53833;SDS011;39735;51.432;5.482;2022-07-09T09:03:04;24.13;;;11.52;;
53833;SDS011;39735;51.432;5.482;2022-07-09T09:05:30;21.90;;;11.15;;
53833;SDS011;39735;51.432;5.482;2022-07-09T09:07:55;24.45;;;11.43;;
53833;SDS011;39735;51.432;5.482;2022-07-09T09:10:24;23.67;;;9.32;;
53833;SDS011;39735;51.432;5.482;2022-07-09T09:13:01;28.35;;;9.05;;
53833;SDS011;39735;51.432;5.482;2022-07-09T09:15:27;14.65;;;8.30;;
53833;SDS011;39735;51.432;5.482;2022-07-09T09:17:54;21.63;;;11.13;;
53833;SDS011;39735;51.432;5.482;2022-07-09T09:20:19;30.52;;;15.27;;
53833;SDS011;39735;51.432;5.482;2022-07-09T09:22:50;32.40;;;12.00;;
53833;SDS011;39735;51.432;5.482;2022-07-09T09:25:24;27.60;;;12.43;;
53833;SDS011;39735;51.432;5.482;2022-07-09T09:27:51;17.75;;;11.48;;
53833;SDS011;39735;51.432;5.482;2022-07-09T09:30:20;26.00;;;12.82;;
53833;SDS011;39735;51.432;5.482;2022-07-09T09:32:55;16.00;;;10.70;;
53833;SDS011;39735;51.432;5.482;2022-07-09T09:35:23;15.05;;;11.80;;
53833;SDS011;39735;51.432;5.482;2022-07-09T09:37:50;16.92;;;10.02;;
53833;SDS011;39735;51.432;5.482;2022-07-09T09:40:15;16.58;;;12.10;;
53833;SDS011;39735;51.432;5.482;2022-07-09T09:42:41;20.45;;;13.57;;
53833;SDS011;39735;51.432;5.482;2022-07-09T09:45:07;23.85;;;12.60;;
53833;SDS011;39735;51.432;5.482;2022-07-09T09:47:33;29.33;;;14.18;;
53833;SDS011;39735;51.432;5.482;2022-07-09T09:49:59;17.48;;;12.95;;
53833;SDS011;39735;51.432;5.482;2022-07-09T09:52:25;22.85;;;15.35;;
53833;SDS011;39735;51.432;5.482;2022-07-09T09:54:51;21.88;;;15.02;;
53833;SDS011;39735;51.432;5.482;2022-07-09T09:57:17;26.67;;;15.98;;
53833;SDS011;39735;51.432;5.482;2022-07-09T09:59:45;27.90;;;15.73;;
53833;SDS011;39735;51.432;5.482;2022-07-09T10:02:11;21.15;;;15.25;;
53833;SDS011;39735;51.432;5.482;2022-07-09T10:04:43;30.20;;;16.08;;
53833;SDS011;39735;51.432;5.482;2022-07-09T10:07:13;23.75;;;15.73;;
53833;SDS011;39735;51.432;5.482;2022-07-09T10:09:39;20.45;;;12.13;;
53833;SDS011;39735;51.432;5.482;2022-07-09T10:12:05;23.90;;;12.57;;
53833;SDS011;39735;51.432;5.482;2022-07-09T10:14:34;27.08;;;13.32;;
53833;SDS011;39735;51.432;5.482;2022-07-09T10:19:36;17.70;;;12.60;;
53833;SDS011;39735;51.432;5.482;2022-07-09T10:22:02;22.92;;;11.93;;
53833;SDS011;39735;51.432;5.482;2022-07-09T10:24:31;37.00;;;16.25;;
53833;SDS011;39735;51.432;5.482;2022-07-09T10:27:08;23.13;;;14.82;;
53833;SDS011;39735;51.432;5.482;2022-07-09T10:29:35;18.27;;;12.25;;
53833;SDS011;39735;51.432;5.482;2022-07-09T10:32:01;21.70;;;12.13;;
53833;SDS011;39735;51.432;5.482;2022-07-09T10:37:00;14.40;;;8.63;;
53833;SDS011;39735;51.432;5.482;2022-07-09T10:39:26;24.45;;;9.55;;
53833;SDS011;39735;51.432;5.482;2022-07-09T10:42:02;21.67;;;12.45;;
53833;SDS011;39735;51.432;5.482;2022-07-09T10:44:39;24.83;;;9.88;;
53833;SDS011;39735;51.432;5.482;2022-07-09T10:47:06;36.80;;;11.40;;
53833;SDS011;39735;51.432;5.482;2022-07-09T10:49:35;26.35;;;10.63;;
53833;SDS011;39735;51.432;5.482;2022-07-09T10:52:01;14.18;;;8.55;;
53833;SDS011;39735;51.432;5.482;2022-07-09T10:54:28;23.38;;;6.75;;
53833;SDS011;39735;51.432;5.482;2022-07-09T10:56:54;13.93;;;7.85;;
53833;SDS011;39735;51.432;5.482;2022-07-09T10:59:20;12.50;;;7.13;;
53833;SDS011;39735;51.432;5.482;2022-07-09T11:01:46;16.67;;;6.72;;
53833;SDS011;39735;51.432;5.482;2022-07-09T11:04:11;26.42;;;8.15;;
53833;SDS011;39735;51.432;5.482;2022-07-09T11:06:47;6.05;;;4.45;;
53833;SDS011;39735;51.432;5.482;2022-07-09T11:09:13;12.27;;;4.43;;
53833;SDS011;39735;51.432;5.482;2022-07-09T11:11:41;11.15;;;4.18;;
53833;SDS011;39735;51.432;5.482;2022-07-09T11:14:07;8.27;;;4.13;;
53833;SDS011;39735;51.432;5.482;2022-07-09T11:16:32;25.92;;;4.95;;
53833;SDS011;39735;51.432;5.482;2022-07-09T11:18:58;7.32;;;3.15;;
53833;SDS011;39735;51.432;5.482;2022-07-09T11:21:24;9.38;;;2.58;;
53833;SDS011;39735;51.432;5.482;2022-07-09T11:23:50;8.63;;;2.95;;
53833;SDS011;39735;51.432;5.482;2022-07-09T11:26:15;7.82;;;3.60;;
53833;SDS011;39735;51.432;5.482;2022-07-09T11:28:40;20.85;;;4.35;;
53833;SDS011;39735;51.432;5.482;2022-07-09T11:31:06;5.25;;;2.80;;
53833;SDS011;39735;51.432;5.482;2022-07-09T11:33:31;6.55;;;3.55;;
53833;SDS011;39735;51.432;5.482;2022-07-09T11:36:19;5.30;;;2.00;;
53833;SDS011;39735;51.432;5.482;2022-07-09T11:38:48;14.77;;;4.53;;
53833;SDS011;39735;51.432;5.482;2022-07-09T11:41:15;16.77;;;2.70;;
53833;SDS011;39735;51.432;5.482;2022-07-09T11:43:45;9.90;;;3.17;;
53833;SDS011;39735;51.432;5.482;2022-07-09T11:46:20;7.60;;;2.05;;
53833;SDS011;39735;51.432;5.482;2022-07-09T11:48:52;2.47;;;1.70;;
53833;SDS011;39735;51.432;5.482;2022-07-09T11:51:28;13.15;;;1.55;;
53833;SDS011;39735;51.432;5.482;2022-07-09T11:53:57;4.82;;;1.23;;
53833;SDS011;39735;51.432;5.482;2022-07-09T11:56:22;3.63;;;1.30;;
53833;SDS011;39735;51.432;5.482;2022-07-09T11:58:51;8.00;;;1.50;;
53833;SDS011;39735;51.432;5.482;2022-07-09T12:01:17;1.50;;;1.13;;
53833;SDS011;39735;51.432;5.482;2022-07-09T12:03:46;4.63;;;1.08;;
53833;SDS011;39735;51.432;5.482;2022-07-09T12:06:15;5.47;;;1.35;;
53833;SDS011;39735;51.432;5.482;2022-07-09T12:08:41;10.73;;;1.00;;
53833;SDS011;39735;51.432;5.482;2022-07-09T12:11:07;1.13;;;0.80;;
53833;SDS011;39735;51.432;5.482;2022-07-09T12:13:32;3.03;;;1.10;;
53833;SDS011;39735;51.432;5.482;2022-07-09T12:15:57;2.35;;;1.13;;
53833;SDS011;39735;51.432;5.482;2022-07-09T12:18:25;4.00;;;1.60;;
53833;SDS011;39735;51.432;5.482;2022-07-09T12:20:54;8.43;;;0.82;;
53833;SDS011;39735;51.432;5.482;2022-07-09T12:23:19;7.57;;;0.80;;
53833;SDS011;39735;51.432;5.482;2022-07-09T12:25:45;8.02;;;0.77;;
53833;SDS011;39735;51.432;5.482;2022-07-09T12:28:11;9.05;;;0.80;;
53833;SDS011;39735;51.432;5.482;2022-07-09T12:30:36;4.47;;;1.05;;
53833;SDS011;39735;51.432;5.482;2022-07-09T12:33:01;1.67;;;0.77;;
53833;SDS011;39735;51.432;5.482;2022-07-09T12:35:27;6.18;;;0.75;;
53833;SDS011;39735;51.432;5.482;2022-07-09T12:37:53;7.60;;;0.70;;
53833;SDS011;39735;51.432;5.482;2022-07-09T12:40:21;4.57;;;0.77;;
53833;SDS011;39735;51.432;5.482;2022-07-09T12:42:46;0.73;;;0.73;;
53833;SDS011;39735;51.432;5.482;2022-07-09T12:45:11;6.05;;;0.95;;
53833;SDS011;39735;51.432;5.482;2022-07-09T12:47:37;1.95;;;1.10;;
53833;SDS011;39735;51.432;5.482;2022-07-09T12:50:03;11.32;;;1.33;;
53833;SDS011;39735;51.432;5.482;2022-07-09T12:52:30;3.10;;;1.75;;
53833;SDS011;39735;51.432;5.482;2022-07-09T12:54:57;1.75;;;1.08;;
53833;SDS011;39735;51.432;5.482;2022-07-09T12:57:24;6.72;;;0.70;;
53833;SDS011;39735;51.432;5.482;2022-07-09T12:59:50;9.60;;;1.30;;
53833;SDS011;39735;51.432;5.482;2022-07-09T13:02:15;5.97;;;1.42;;
53833;SDS011;39735;51.432;5.482;2022-07-09T13:04:41;0.65;;;0.65;;
53833;SDS011;39735;51.432;5.482;2022-07-09T13:07:06;2.42;;;0.52;;
53833;SDS011;39735;51.432;5.482;2022-07-09T13:09:34;5.05;;;0.65;;
53833;SDS011;39735;51.432;5.482;2022-07-09T13:12:01;4.30;;;0.75;;
53833;SDS011;39735;51.432;5.482;2022-07-09T13:14:27;1.52;;;1.02;;
53833;SDS011;39735;51.432;5.482;2022-07-09T13:16:52;3.47;;;1.05;;
53833;SDS011;39735;51.432;5.482;2022-07-09T13:19:17;0.50;;;0.50;;
53833;SDS011;39735;51.432;5.482;2022-07-09T13:21:43;1.40;;;0.80;;
53833;SDS011;39735;51.432;5.482;2022-07-09T13:24:08;0.75;;;0.65;;
53833;SDS011;39735;51.432;5.482;2022-07-09T13:26:34;0.85;;;0.82;;
53833;SDS011;39735;51.432;5.482;2022-07-09T13:28:59;3.70;;;0.85;;
53833;SDS011;39735;51.432;5.482;2022-07-09T13:31:25;17.25;;;1.13;;
53833;SDS011;39735;51.432;5.482;2022-07-09T13:33:50;1.70;;;0.55;;
53833;SDS011;39735;51.432;5.482;2022-07-09T13:36:15;6.50;;;4.18;;
53833;SDS011;39735;51.432;5.482;2022-07-09T13:38:41;0.75;;;0.75;;
53833;SDS011;39735;51.432;5.482;2022-07-09T13:41:06;3.38;;;1.77;;
53833;SDS011;39735;51.432;5.482;2022-07-09T13:43:31;0.93;;;0.57;;
53833;SDS011;39735;51.432;5.482;2022-07-09T13:45:57;2.17;;;0.50;;
53833;SDS011;39735;51.432;5.482;2022-07-09T13:48:24;7.25;;;0.70;;
53833;SDS011;39735;51.432;5.482;2022-07-09T13:50:49;9.23;;;0.70;;
53833;SDS011;39735;51.432;5.482;2022-07-09T13:53:15;5.82;;;1.13;;
53833;SDS011;39735;51.432;5.482;2022-07-09T13:55:40;3.83;;;0.70;;
53833;SDS011;39735;51.432;5.482;2022-07-09T13:58:06;2.80;;;0.80;;
53833;SDS011;39735;51.432;5.482;2022-07-09T14:00:32;8.93;;;1.13;;
53833;SDS011;39735;51.432;5.482;2022-07-09T14:02:57;2.55;;;0.55;;
53833;SDS011;39735;51.432;5.482;2022-07-09T14:05:23;3.80;;;1.05;;
53833;SDS011;39735;51.432;5.482;2022-07-09T14:07:48;4.07;;;0.75;;
53833;SDS011;39735;51.432;5.482;2022-07-09T14:10:14;5.72;;;0.90;;
53833;SDS011;39735;51.432;5.482;2022-07-09T14:12:39;4.43;;;1.50;;
53833;SDS011;39735;51.432;5.482;2022-07-09T14:15:05;2.90;;;0.98;;
53833;SDS011;39735;51.432;5.482;2022-07-09T14:17:30;25.02;;;6.60;;
53833;SDS011;39735;51.432;5.482;2022-07-09T14:19:56;1.75;;;0.73;;
53833;SDS011;39735;51.432;5.482;2022-07-09T14:22:23;3.80;;;0.82;;
53833;SDS011;39735;51.432;5.482;2022-07-09T14:24:49;2.08;;;0.80;;
53833;SDS011;39735;51.432;5.482;2022-07-09T14:27:15;3.72;;;1.15;;
53833;SDS011;39735;51.432;5.482;2022-07-09T14:29:41;3.80;;;1.08;;